Terminal Aerodrome Forecast
Issued by NWS

Home | Current Version | Previous Version | Text Only | Print | Product List | Glossary On
Versions: 1 2 3 4 5 6 7 8 9 10 11 12 13 14
000
FTUS42 KGSP 302300
TAFAND
TAF
KAND 302339Z 3100/3124 07003KT P6SM SCT250
     FM310700 04003KT P6SM SCT035 BKN050
     FM311000 05004KT P6SM BKN035
     FM311500 07005KT P6SM OVC035=

USA.gov is the U.S. government's official web portal to all federal, state and local government web resources and services.